createdAt,value
2023-04-19T00:02:13.927Z,12.90
2023-04-19T00:04:40.959Z,12.90
2023-04-19T00:07:08.501Z,12.90
2023-04-19T00:09:35.355Z,12.90
2023-04-19T00:12:02.283Z,12.90
2023-04-19T00:14:30.522Z,12.90
2023-04-19T00:16:57.508Z,12.90
2023-04-19T00:19:24.480Z,12.90
2023-04-19T00:21:51.347Z,12.80
2023-04-19T00:24:18.304Z,12.90
2023-04-19T00:26:45.239Z,12.80
2023-04-19T00:29:12.132Z,12.80
2023-04-19T00:31:40.346Z,12.80
2023-04-19T00:34:07.501Z,12.80
2023-04-19T00:36:34.474Z,12.80
2023-04-19T00:39:01.340Z,12.80
2023-04-19T00:41:28.216Z,12.70
2023-04-19T00:43:55.294Z,12.80
2023-04-19T00:46:22.558Z,12.70
2023-04-19T00:48:51.093Z,12.70
2023-04-19T00:51:18.069Z,12.70
2023-04-19T00:53:45.744Z,12.70
2023-04-19T00:56:14.586Z,12.60
2023-04-19T00:58:41.560Z,12.60
2023-04-19T01:01:08.532Z,12.60
2023-04-19T01:03:36.603Z,12.60
2023-04-19T01:06:05.251Z,12.60
2023-04-19T01:08:32.096Z,12.60
2023-04-19T01:10:58.942Z,12.70
2023-04-19T01:13:27.934Z,12.70
2023-04-19T01:15:55.268Z,12.70
2023-04-19T01:18:24.305Z,12.70
2023-04-19T01:20:51.174Z,12.70
2023-04-19T01:23:19.351Z,12.70
2023-04-19T01:25:46.282Z,12.70
2023-04-19T01:28:13.171Z,12.60
2023-04-19T01:30:40.098Z,12.60
2023-04-19T01:33:06.871Z,12.60
2023-04-19T01:35:33.880Z,12.60
2023-04-19T01:38:01.025Z,12.60
2023-04-19T01:40:29.315Z,12.60
2023-04-19T01:42:56.229Z,12.60
2023-04-19T01:45:23.057Z,12.60
2023-04-19T01:47:50.116Z,12.60
2023-04-19T01:50:17.025Z,12.60
2023-04-19T01:52:43.819Z,12.60
2023-04-19T01:55:10.699Z,12.60
2023-04-19T01:57:38.902Z,12.60
2023-04-19T02:00:07.298Z,12.60
2023-04-19T02:02:36.475Z,12.60
2023-04-19T02:05:03.652Z,12.60
2023-04-19T02:07:30.451Z,12.60
2023-04-19T02:09:59.570Z,12.60
2023-04-19T02:12:28.684Z,12.60
2023-04-19T02:14:59.554Z,12.60
2023-04-19T02:17:26.700Z,12.60
2023-04-19T02:19:53.609Z,12.60
2023-04-19T02:22:21.161Z,12.70
2023-04-19T02:24:49.776Z,12.70
2023-04-19T02:27:16.755Z,12.70
2023-04-19T02:29:44.350Z,12.70
2023-04-19T02:32:13.705Z,12.70
2023-04-19T02:34:40.553Z,12.70
2023-04-19T02:37:07.441Z,12.70
2023-04-19T02:39:34.395Z,12.70
2023-04-19T02:42:01.437Z,12.70
2023-04-19T02:44:28.324Z,12.70
2023-04-19T02:46:55.355Z,12.70
2023-04-19T02:49:23.631Z,12.60
2023-04-19T02:51:52.928Z,12.60
2023-04-19T02:54:19.734Z,12.60
2023-04-19T02:56:46.573Z,12.60
2023-04-19T02:59:13.460Z,12.60
2023-04-19T03:01:40.405Z,12.70
2023-04-19T03:04:07.346Z,12.60
2023-04-19T03:06:36.356Z,12.60
2023-04-19T03:09:03.219Z,12.60
2023-04-19T03:11:30.023Z,12.60
2023-04-19T03:13:56.833Z,12.60
2023-04-19T03:16:23.672Z,12.60
2023-04-19T03:18:50.559Z,12.60
2023-04-19T03:21:17.442Z,12.60
2023-04-19T03:23:46.201Z,12.60
2023-04-19T03:26:13.149Z,12.60
2023-04-19T03:28:40.098Z,12.60
2023-04-19T03:31:06.988Z,12.60
2023-04-19T03:33:33.831Z,12.60
2023-04-19T03:36:00.657Z,12.60
2023-04-19T03:38:27.615Z,12.60
2023-04-19T03:40:57.232Z,12.60
2023-04-19T03:43:24.440Z,12.60
2023-04-19T03:45:51.817Z,12.60
2023-04-19T03:48:18.673Z,12.60
2023-04-19T03:50:45.513Z,12.60
2023-04-19T03:53:12.676Z,12.60
2023-04-19T03:55:39.521Z,12.60
2023-04-19T03:58:07.786Z,12.60
2023-04-19T04:00:36.382Z,12.60
2023-04-19T04:03:03.465Z,12.60
2023-04-19T04:05:30.616Z,12.50
2023-04-19T04:07:57.791Z,12.50
2023-04-19T04:10:24.649Z,12.50
2023-04-19T04:12:51.533Z,12.50
2023-04-19T04:15:19.671Z,12.50
2023-04-19T04:17:46.469Z,12.50
2023-04-19T04:20:13.808Z,12.50
2023-04-19T04:22:42.895Z,12.50
2023-04-19T04:25:10.444Z,12.40
2023-04-19T04:27:37.696Z,12.40
2023-04-19T04:30:05.178Z,12.40
2023-04-19T04:32:35.835Z,12.40
2023-04-19T04:35:03.668Z,12.40
2023-04-19T04:37:33.961Z,12.40
2023-04-19T04:40:01.286Z,12.40
2023-04-19T04:42:31.404Z,12.40
2023-04-19T04:44:58.227Z,12.40
2023-04-19T04:47:25.908Z,12.40
2023-04-19T04:49:54.140Z,12.40
2023-04-19T04:52:21.222Z,12.40
2023-04-19T04:54:48.040Z,12.30
2023-04-19T04:57:17.940Z,12.40
2023-04-19T04:59:44.793Z,12.30
2023-04-19T05:02:11.790Z,12.30
2023-04-19T05:04:38.660Z,12.30
2023-04-19T05:07:06.875Z,12.30
2023-04-19T05:09:33.686Z,12.30
2023-04-19T05:12:01.728Z,12.30
2023-04-19T05:14:28.554Z,12.40
2023-04-19T05:16:55.376Z,12.30
2023-04-19T05:19:22.266Z,12.30
2023-04-19T05:21:49.096Z,12.30
2023-04-19T05:24:17.475Z,12.30
2023-04-19T05:26:44.714Z,12.40
2023-04-19T05:29:11.738Z,12.30
2023-04-19T05:31:38.673Z,12.30
2023-04-19T05:34:05.570Z,12.30
2023-04-19T05:36:32.523Z,12.30
2023-04-19T05:38:59.328Z,12.30
2023-04-19T05:41:27.603Z,12.40
2023-04-19T05:43:54.569Z,12.40
2023-04-19T05:46:21.835Z,12.40
2023-04-19T05:48:48.767Z,12.50
2023-04-19T05:51:17.409Z,12.50
2023-04-19T05:53:44.591Z,12.50
2023-04-19T05:56:11.496Z,12.60
2023-04-19T05:58:39.673Z,12.50
2023-04-19T06:01:06.906Z,12.50
2023-04-19T06:03:34.015Z,12.50
2023-04-19T06:06:01.061Z,12.50
2023-04-19T06:08:28.109Z,12.60
2023-04-19T06:11:00.125Z,12.60
2023-04-19T06:13:31.905Z,12.60
2023-04-19T06:16:00.274Z,12.60
2023-04-19T06:18:27.120Z,12.70
2023-04-19T06:20:53.974Z,12.60
2023-04-19T06:23:21.032Z,12.60
2023-04-19T06:25:48.816Z,12.70
2023-04-19T06:28:16.205Z,12.70
2023-04-19T06:30:43.010Z,12.70
2023-04-19T06:33:11.397Z,12.70
2023-04-19T06:35:38.314Z,12.60
2023-04-19T06:38:05.168Z,12.60
2023-04-19T06:40:31.940Z,12.60
2023-04-19T06:42:58.699Z,12.60
2023-04-19T06:45:26.084Z,12.60
2023-04-19T06:47:52.955Z,12.60
2023-04-19T06:50:21.541Z,12.60
2023-04-19T06:52:48.364Z,12.50
2023-04-19T06:55:15.237Z,12.60
2023-04-19T06:57:43.293Z,12.50
2023-04-19T07:00:11.521Z,12.50
2023-04-19T07:02:38.424Z,12.50
2023-04-19T07:05:07.957Z,12.40
2023-04-19T07:07:38.239Z,12.40
2023-04-19T07:10:06.111Z,12.40
2023-04-19T07:12:32.933Z,12.40
2023-04-19T07:14:59.705Z,12.40
2023-04-19T07:17:26.831Z,12.40
2023-04-19T07:19:53.647Z,12.40
2023-04-19T07:22:22.232Z,12.50
2023-04-19T07:24:52.089Z,12.50
2023-04-19T07:27:18.846Z,12.60
2023-04-19T07:29:46.448Z,12.60
2023-04-19T07:32:16.181Z,12.70
2023-04-19T07:34:43.622Z,12.90
2023-04-19T07:37:10.557Z,13.00
2023-04-19T07:39:37.398Z,13.10
2023-04-19T07:42:05.721Z,13.20
2023-04-19T07:44:32.571Z,13.40
2023-04-19T07:46:59.505Z,13.40
2023-04-19T07:49:26.366Z,13.50
2023-04-19T07:51:53.269Z,13.70
2023-04-19T07:54:20.456Z,13.80
2023-04-19T07:56:47.320Z,13.80
2023-04-19T07:59:16.121Z,14.30
2023-04-19T08:01:43.482Z,14.50
2023-04-19T08:04:10.768Z,14.70
2023-04-19T08:06:39.775Z,14.80
2023-04-19T08:09:06.961Z,14.70
2023-04-19T08:11:33.909Z,14.80
2023-04-19T08:17:14.690Z,14.90
2023-04-19T08:19:18.942Z,15.00
2023-04-19T08:21:45.924Z,15.20
2023-04-19T08:24:12.742Z,15.30
2023-04-19T08:26:39.569Z,15.40
2023-04-19T08:29:06.410Z,15.40
2023-04-19T08:31:35.711Z,15.50
2023-04-19T08:34:02.828Z,15.60
2023-04-19T08:36:39.074Z,15.70
2023-04-19T08:39:14.745Z,15.80
2023-04-19T08:41:48.212Z,15.90
2023-04-19T08:44:32.733Z,16.10
2023-04-19T08:47:04.940Z,16.20
2023-04-19T08:49:34.688Z,16.30
2023-04-19T08:52:02.480Z,16.30
2023-04-19T08:54:29.864Z,16.40
2023-04-19T08:56:59.425Z,16.30
2023-04-19T08:59:26.436Z,16.50
2023-04-19T09:01:54.378Z,16.30
2023-04-19T09:04:36.352Z,16.30
2023-04-19T09:07:04.553Z,16.30
2023-04-19T09:12:01.879Z,16.50
2023-04-19T09:14:29.393Z,16.50
2023-04-19T09:17:12.666Z,16.70
2023-04-19T09:19:47.733Z,16.70
2023-04-19T09:22:15.003Z,17.10
2023-04-19T09:27:12.339Z,17.30
2023-04-19T09:29:39.612Z,17.40
2023-04-19T09:32:06.744Z,17.50
2023-04-19T09:34:33.627Z,17.60
2023-04-19T09:37:21.511Z,17.60
2023-04-19T09:40:02.979Z,17.60
2023-04-19T09:43:00.143Z,17.60
2023-04-19T09:45:43.726Z,17.50
2023-04-19T09:48:12.544Z,17.40
2023-04-19T09:50:58.546Z,17.30
2023-04-19T09:53:34.250Z,17.20
2023-04-19T09:56:03.060Z,17.10
2023-04-19T10:01:13.235Z,17.60
2023-04-19T10:03:43.150Z,17.70
2023-04-19T10:06:15.480Z,17.70
2023-04-19T10:08:56.096Z,17.70
2023-04-19T10:11:23.780Z,17.90
2023-04-19T10:13:54.596Z,18.10
2023-04-19T10:16:21.880Z,18.30
2023-04-19T10:18:50.107Z,18.30
2023-04-19T10:21:19.104Z,18.20
2023-04-19T10:23:46.448Z,18.20
2023-04-19T10:26:14.772Z,18.30
2023-04-19T10:28:42.233Z,18.30
2023-04-19T10:31:12.808Z,18.40
2023-04-19T10:33:40.960Z,18.50
2023-04-19T10:36:09.878Z,18.50
2023-04-19T10:38:38.200Z,18.60
2023-04-19T10:41:13.534Z,18.70
2023-04-19T10:43:45.229Z,18.80
2023-04-19T10:46:15.381Z,18.80
2023-04-19T10:48:54.178Z,18.70
2023-04-19T10:51:23.113Z,18.80
2023-04-19T10:53:52.621Z,19.00
2023-04-19T10:56:21.189Z,19.10
2023-04-19T10:59:22.163Z,19.30
2023-04-19T11:01:55.216Z,19.30
2023-04-19T11:04:27.906Z,19.20
2023-04-19T11:07:03.877Z,19.20
2023-04-19T11:09:34.289Z,19.30
2023-04-19T11:12:03.573Z,19.50
2023-04-19T11:14:33.906Z,19.70
2023-04-19T11:17:01.103Z,19.80
2023-04-19T11:19:28.738Z,20.00
2023-04-19T11:21:59.892Z,20.10
2023-04-19T11:24:26.849Z,20.30
2023-04-19T11:26:56.213Z,20.40
2023-04-19T11:29:23.108Z,20.60
2023-04-19T11:31:51.645Z,20.80
2023-04-19T11:34:23.382Z,21.00
2023-04-19T11:36:51.647Z,21.20
2023-04-19T11:39:18.832Z,21.40
2023-04-19T11:41:47.298Z,21.60
2023-04-19T11:44:15.677Z,21.80
2023-04-19T11:46:43.687Z,22.00
2023-04-19T11:49:26.188Z,22.30
2023-04-19T11:51:57.288Z,22.60
2023-04-19T11:54:24.994Z,22.90
2023-04-19T11:57:03.513Z,23.30
2023-04-19T11:59:31.115Z,23.40
2023-04-19T12:02:08.471Z,23.40
2023-04-19T12:04:37.087Z,23.10
2023-04-19T12:07:05.703Z,23.00
2023-04-19T12:09:34.177Z,23.00
2023-04-19T12:12:02.209Z,23.00
2023-04-19T12:14:30.406Z,23.00
2023-04-19T12:17:21.055Z,22.90
2023-04-19T12:19:49.287Z,23.00
2023-04-19T12:22:19.684Z,22.90
2023-04-19T12:24:47.025Z,22.90
2023-04-19T12:27:18.303Z,22.90
2023-04-19T12:29:46.143Z,22.90
2023-04-19T12:32:14.761Z,22.80
2023-04-19T12:34:42.548Z,22.70
2023-04-19T12:37:10.940Z,22.60
2023-04-19T12:39:37.907Z,22.40
2023-04-19T12:42:06.162Z,22.30
2023-04-19T12:44:33.109Z,22.10
2023-04-19T12:46:59.984Z,22.00
2023-04-19T12:49:27.281Z,21.70
2023-04-19T12:51:57.059Z,21.50
2023-04-19T12:54:25.910Z,21.40
2023-04-19T12:56:52.910Z,21.20
2023-04-19T12:59:19.768Z,21.00
2023-04-19T13:01:46.720Z,21.00
2023-04-19T13:04:13.765Z,20.90
2023-04-19T13:06:40.950Z,20.90
2023-04-19T13:09:14.127Z,20.80
2023-04-19T13:11:43.033Z,20.80
2023-04-19T13:14:09.892Z,20.60
2023-04-19T13:16:36.754Z,20.40
2023-04-19T13:19:03.574Z,20.40
2023-04-19T13:21:30.533Z,20.30
2023-04-19T13:23:58.465Z,20.40
2023-04-19T13:26:25.497Z,20.40
2023-04-19T13:28:53.742Z,20.40
2023-04-19T13:31:20.638Z,20.40
2023-04-19T13:33:47.641Z,20.40
2023-04-19T13:36:14.425Z,20.40
2023-04-19T13:38:41.466Z,20.30
2023-04-19T13:41:08.361Z,20.10
2023-04-19T13:43:35.340Z,20.00
2023-04-19T13:46:03.580Z,19.90
2023-04-19T13:48:30.568Z,19.80
2023-04-19T13:50:58.338Z,19.70
2023-04-19T13:53:29.218Z,19.70
2023-04-19T13:55:56.899Z,19.70
2023-04-19T13:58:26.997Z,19.70
2023-04-19T14:00:54.183Z,19.80
2023-04-19T14:03:24.067Z,19.80
2023-04-19T14:05:51.012Z,19.80
2023-04-19T14:08:17.848Z,19.80
2023-04-19T14:10:44.722Z,19.90
2023-04-19T14:13:11.627Z,19.90
2023-04-19T14:15:38.480Z,19.90
2023-04-19T14:18:05.521Z,19.80
2023-04-19T14:20:34.061Z,19.70
2023-04-19T14:23:01.180Z,19.60
2023-04-19T14:25:28.035Z,19.40
2023-04-19T14:28:01.266Z,19.30
2023-04-19T14:30:29.405Z,19.20
2023-04-19T14:32:58.045Z,19.10
2023-04-19T14:35:25.396Z,19.00
2023-04-19T14:37:53.664Z,19.00
2023-04-19T14:40:21.272Z,19.00
2023-04-19T14:42:48.192Z,18.90
2023-04-19T14:45:15.404Z,18.90
2023-04-19T14:47:42.333Z,18.80
2023-04-19T14:50:09.731Z,18.70
2023-04-19T14:52:36.511Z,18.60
2023-04-19T14:55:05.498Z,18.50
2023-04-19T14:57:32.313Z,18.60
2023-04-19T14:59:59.203Z,18.60
2023-04-19T15:02:26.224Z,18.70
2023-04-19T15:04:53.986Z,18.80
2023-04-19T15:07:21.673Z,18.90
2023-04-19T15:09:48.529Z,18.90
2023-04-19T15:12:16.730Z,18.80
2023-04-19T15:14:43.545Z,18.70
2023-04-19T15:17:10.559Z,18.50
2023-04-19T15:19:39.154Z,18.40
2023-04-19T15:22:06.282Z,18.30
2023-04-19T15:24:34.054Z,18.20
2023-04-19T15:27:01.529Z,18.20
2023-04-19T15:29:29.850Z,18.10
2023-04-19T15:31:56.828Z,18.10
2023-04-19T15:34:25.335Z,18.10
2023-04-19T15:36:52.174Z,18.10
2023-04-19T15:39:19.060Z,18.00
2023-04-19T15:41:45.951Z,17.90
2023-04-19T15:44:13.497Z,17.80
2023-04-19T15:46:41.714Z,17.70
2023-04-19T15:49:08.579Z,17.70
2023-04-19T15:51:35.414Z,17.60
2023-04-19T15:54:02.192Z,17.60
2023-04-19T15:56:29.028Z,17.40
2023-04-19T15:58:55.757Z,17.20
2023-04-19T16:01:23.201Z,17.10
2023-04-19T16:03:51.553Z,17.00
2023-04-19T16:06:18.505Z,17.00
2023-04-19T16:08:45.496Z,16.90
2023-04-19T16:11:12.338Z,16.80
2023-04-19T16:13:39.232Z,16.70
2023-04-19T16:16:06.728Z,16.50
2023-04-19T16:18:33.663Z,16.30
2023-04-19T16:21:01.818Z,16.20
2023-04-19T16:23:28.961Z,16.10
2023-04-19T16:25:56.769Z,16.00
2023-04-19T16:28:23.870Z,15.80
2023-04-19T16:30:50.833Z,15.70
2023-04-19T16:33:17.755Z,15.60
2023-04-19T16:35:44.781Z,15.50
2023-04-19T16:38:12.980Z,15.50
2023-04-19T16:40:39.863Z,15.40
2023-04-19T16:43:06.738Z,15.50
2023-04-19T16:45:33.737Z,15.40
2023-04-19T16:48:00.859Z,15.40
2023-04-19T16:50:27.723Z,15.40
2023-04-19T16:52:54.537Z,15.40
2023-04-19T16:55:22.974Z,15.40
2023-04-19T16:57:50.929Z,15.40
2023-04-19T17:00:18.247Z,15.30
2023-04-19T17:02:45.202Z,15.20
2023-04-19T17:05:13.755Z,15.20
2023-04-19T17:07:40.635Z,15.10
2023-04-19T17:10:08.793Z,15.00
2023-04-19T17:12:36.947Z,15.00
2023-04-19T17:15:04.296Z,15.00
2023-04-19T17:17:31.152Z,14.90
2023-04-19T17:19:58.018Z,14.80
2023-04-19T17:22:24.845Z,14.70
2023-04-19T17:24:51.892Z,14.60
2023-04-19T17:27:18.674Z,14.60
2023-04-19T17:29:46.787Z,14.50
2023-04-19T17:32:13.623Z,14.50
2023-04-19T17:34:40.363Z,14.40
2023-04-19T17:37:07.118Z,14.30
2023-04-19T17:39:33.886Z,14.30
2023-04-19T17:42:01.564Z,14.20
2023-04-19T17:44:28.322Z,14.20
2023-04-19T17:46:57.269Z,14.10
2023-04-19T17:49:24.850Z,14.10
2023-04-19T17:51:53.038Z,14.00
2023-04-19T17:54:20.798Z,14.00
2023-04-19T17:56:47.636Z,14.00
2023-04-19T17:59:14.528Z,14.00
2023-04-19T18:01:41.534Z,14.00
2023-04-19T18:04:11.691Z,14.00
2023-04-19T18:06:38.621Z,14.10
2023-04-19T18:09:05.425Z,14.10
2023-04-19T18:11:32.198Z,14.20
2023-04-19T18:13:58.979Z,14.20
2023-04-19T18:16:25.886Z,14.20
2023-04-19T18:18:52.594Z,14.20
2023-04-19T18:21:20.631Z,14.20
2023-04-19T18:23:47.449Z,14.20
2023-04-19T18:26:14.186Z,14.20
2023-04-19T18:28:41.002Z,14.20
2023-04-19T18:31:09.222Z,14.10
2023-04-19T18:33:36.390Z,14.10
2023-04-19T18:36:03.410Z,14.00
2023-04-19T18:38:31.693Z,14.00
2023-04-19T18:40:59.431Z,13.90
2023-04-19T18:43:28.101Z,13.90
2023-04-19T18:45:55.621Z,13.80
2023-04-19T18:48:23.033Z,13.80
2023-04-19T18:50:49.753Z,13.80
2023-04-19T18:53:16.673Z,13.70
2023-04-19T18:55:47.165Z,13.60
2023-04-19T18:58:14.881Z,13.60
2023-04-19T19:00:41.677Z,13.50
2023-04-19T19:03:21.525Z,13.50
2023-04-19T19:05:55.781Z,13.40
2023-04-19T19:08:22.831Z,13.30
2023-04-19T19:13:20.623Z,13.20
2023-04-19T19:15:47.635Z,13.20
2023-04-19T19:18:15.045Z,13.10
2023-04-19T19:20:42.128Z,13.10
2023-04-19T19:23:09.015Z,13.00
2023-04-19T19:25:35.769Z,13.00
2023-04-19T19:28:09.045Z,13.00
2023-04-19T19:30:39.582Z,12.90
2023-04-19T19:33:06.670Z,12.90
2023-04-19T19:35:33.621Z,12.80
2023-04-19T19:38:00.589Z,12.80
2023-04-19T19:40:31.147Z,12.80
2023-04-19T19:42:59.495Z,12.70
2023-04-19T19:45:28.878Z,12.70
2023-04-19T19:47:58.717Z,12.60
2023-04-19T19:51:06.819Z,12.60
2023-04-19T19:53:12.817Z,12.50
2023-04-19T19:55:40.113Z,12.50
2023-04-19T20:00:47.441Z,12.40
2023-04-19T20:03:32.827Z,12.40
2023-04-19T20:06:35.496Z,12.30
2023-04-19T20:08:51.456Z,12.30
2023-04-19T20:11:18.247Z,12.40
2023-04-19T20:13:45.647Z,12.20
2023-04-19T20:16:14.609Z,12.20
2023-04-19T20:18:42.495Z,12.10
2023-04-19T20:21:09.566Z,12.10
2023-04-19T20:23:38.351Z,12.10
2023-04-19T20:26:05.778Z,12.10
2023-04-19T20:28:33.414Z,12.10
2023-04-19T20:31:00.326Z,12.10
2023-04-19T20:33:28.541Z,12.00
2023-04-19T20:35:56.859Z,12.10
2023-04-19T20:38:24.337Z,12.00
2023-04-19T20:40:51.269Z,12.00
2023-04-19T20:43:18.153Z,12.00
2023-04-19T20:45:45.044Z,12.00
2023-04-19T20:48:13.181Z,12.00
2023-04-19T20:50:42.328Z,11.90
2023-04-19T20:53:09.177Z,11.90
2023-04-19T20:55:37.213Z,11.90
2023-04-19T20:58:04.181Z,11.90
2023-04-19T21:00:31.052Z,11.90
2023-04-19T21:02:58.179Z,11.90
2023-04-19T21:05:25.170Z,11.80
2023-04-19T21:07:53.351Z,11.70
2023-04-19T21:10:22.018Z,11.60
2023-04-19T21:12:49.235Z,11.50
2023-04-19T21:15:16.324Z,11.40
2023-04-19T21:17:43.696Z,11.40
2023-04-19T21:20:15.584Z,11.30
2023-04-19T21:22:44.114Z,11.10
2023-04-19T21:25:12.511Z,11.10
2023-04-19T21:27:40.465Z,11.10
2023-04-19T21:30:08.590Z,11.00
2023-04-19T21:32:35.443Z,11.00
2023-04-19T21:35:02.477Z,10.90
2023-04-19T21:37:29.498Z,10.80
2023-04-19T21:39:57.584Z,10.80
2023-04-19T21:42:25.602Z,10.50
2023-04-19T21:44:52.418Z,10.70
2023-04-19T21:47:19.211Z,10.60
2023-04-19T21:49:46.945Z,10.60
2023-04-19T21:52:13.639Z,10.50
2023-04-19T21:54:40.350Z,10.50
2023-04-19T21:57:07.079Z,10.40
2023-04-19T21:59:37.857Z,10.40
2023-04-19T22:02:04.897Z,10.40
2023-04-19T22:04:31.766Z,10.40
2023-04-19T22:07:02.103Z,10.40
2023-04-19T22:09:29.501Z,10.40
2023-04-19T22:11:56.247Z,10.40
2023-04-19T22:14:23.188Z,10.30
2023-04-19T22:16:51.338Z,10.30
2023-04-19T22:19:18.437Z,10.30
2023-04-19T22:21:46.447Z,10.20
2023-04-19T22:24:13.236Z,10.20
2023-04-19T22:26:39.966Z,10.20
2023-04-19T22:29:06.820Z,10.20
2023-04-19T22:31:33.637Z,10.20
2023-04-19T22:34:01.997Z,10.20
2023-04-19T22:36:28.907Z,10.20
2023-04-19T22:38:55.946Z,10.20
2023-04-19T22:41:22.823Z,10.30
2023-04-19T22:43:49.729Z,10.30
2023-04-19T22:46:16.560Z,10.30
2023-04-19T22:48:43.483Z,10.40
2023-04-19T22:51:11.684Z,10.40
2023-04-19T22:53:38.495Z,10.40
2023-04-19T22:56:05.869Z,10.40
2023-04-19T22:58:32.776Z,10.40
2023-04-19T23:00:59.685Z,10.40
2023-04-19T23:03:26.596Z,10.30
2023-04-19T23:05:54.262Z,10.30
2023-04-19T23:08:22.729Z,10.30
2023-04-19T23:10:51.764Z,10.40
2023-04-19T23:13:18.701Z,10.40
2023-04-19T23:15:45.829Z,10.40
2023-04-19T23:18:12.790Z,10.40
2023-04-19T23:20:39.745Z,10.40
2023-04-19T23:23:07.803Z,10.40
2023-04-19T23:25:35.996Z,10.40
2023-04-19T23:28:02.956Z,10.40
2023-04-19T23:30:31.892Z,10.30
2023-04-19T23:32:58.861Z,10.30
2023-04-19T23:35:25.894Z,10.30
2023-04-19T23:37:52.712Z,10.30
2023-04-19T23:40:20.129Z,10.30
2023-04-19T23:42:48.401Z,10.20
2023-04-19T23:45:15.486Z,10.20
2023-04-19T23:47:42.391Z,10.20
2023-04-19T23:50:10.177Z,10.20
2023-04-19T23:52:37.025Z,10.20
2023-04-19T23:55:04.244Z,10.10
2023-04-19T23:57:33.933Z,10.10
